Time;durP1;ratioP1;P1;durP2;ratioP2;P2;SDS_P1;SDS_P2;PMS_P1;PMS_P2;Temp;Humidity;BMP_temperature;BMP_pressure;BME280_temperature;BME280_humidity;BME280_pressure;Samples;Min_cycle;Max_cycle;Signal;HPM_P1;HPM_P2
2021/06/23 00:01:57;;;;;;;2.03;1.27;;;;;;;22.57;73.95;100205.47;6006112;23;20023;-77
2021/06/23 00:04:23;;;;;;;2.20;1.02;;;;;;;22.52;74.17;100208.00;6006056;23;20020;-77
2021/06/23 00:06:49;;;;;;;1.80;1.02;;;;;;;22.53;74.08;100202.31;5982578;23;20032;-78
2021/06/23 00:09:15;;;;;;;1.15;1.00;;;;;;;22.51;74.07;100198.06;6006608;23;20023;-78
2021/06/23 00:11:44;;;;;;;2.10;1.10;;;;;;;22.40;74.60;100199.56;6006515;23;20027;-77
2021/06/23 00:14:11;;;;;;;1.20;1.00;;;;;;;22.29;74.89;100195.56;6006919;23;20047;-79
2021/06/23 00:16:38;;;;;;;1.90;1.30;;;;;;;22.17;75.01;100189.03;6006629;23;20023;-78
2021/06/23 00:19:04;;;;;;;3.45;1.42;;;;;;;22.24;75.02;100198.13;6007286;23;20023;-77
2021/06/23 00:21:30;;;;;;;2.90;1.08;;;;;;;22.23;74.96;100195.56;6006718;23;20024;-80
2021/06/23 00:23:56;;;;;;;2.03;0.90;;;;;;;22.24;74.60;100202.78;5981471;23;20020;-78
2021/06/23 00:26:33;;;;;;;1.10;1.00;;;;;;;22.21;74.86;100206.81;6006000;23;20023;-76
2021/06/23 00:28:59;;;;;;;1.73;1.10;;;;;;;22.18;74.64;100209.97;6007157;23;20019;-78
2021/06/23 00:31:27;;;;;;;2.08;1.00;;;;;;;22.15;74.82;100210.41;6006297;23;20106;-77
2021/06/23 00:33:53;;;;;;;2.20;1.08;;;;;;;22.12;75.28;100216.31;6007843;23;20031;-78
2021/06/23 00:36:19;;;;;;;1.98;1.00;;;;;;;22.07;75.42;100216.94;6007270;23;20409;-78
2021/06/23 00:38:44;;;;;;;1.70;0.90;;;;;;;22.04;75.47;100216.53;6005722;23;20022;-78
2021/06/23 00:41:17;;;;;;;2.78;1.20;;;;;;;22.01;75.51;100214.19;6004244;23;20025;-77
2021/06/23 00:43:43;;;;;;;2.03;1.10;;;;;;;21.94;75.73;100224.34;5980244;23;20023;-78
2021/06/23 00:46:11;;;;;;;2.63;1.10;;;;;;;21.90;76.19;100223.94;6004451;23;20035;-77
2021/06/23 00:48:37;;;;;;;1.60;1.05;;;;;;;21.84;75.90;100214.63;6005785;23;20407;-79
2021/06/23 00:51:05;;;;;;;1.83;1.17;;;;;;;21.73;76.19;100219.91;5981809;23;20123;-76
2021/06/23 00:53:51;;;;;;;1.60;1.08;;;;;;;21.63;76.74;100217.56;5996459;23;20024;-78
2021/06/23 00:56:17;;;;;;;3.25;1.10;;;;;;;21.58;77.22;100215.44;5981454;23;20020;-77
2021/06/23 00:58:47;;;;;;;1.40;0.90;;;;;;;21.61;76.65;100214.16;5981107;23;20330;-78
2021/06/23 01:01:15;;;;;;;1.77;1.33;;;;;;;21.52;76.93;100198.91;5981489;23;20051;-77
2021/06/23 01:03:41;;;;;;;1.50;0.98;;;;;;;21.57;76.58;100210.13;6004434;23;20024;-76
2021/06/23 01:06:11;;;;;;;1.77;1.20;;;;;;;21.57;76.43;100218.38;6004084;23;20095;-77
2021/06/23 01:08:37;;;;;;;2.63;1.23;;;;;;;21.63;76.16;100206.56;6005325;23;20454;-78
2021/06/23 01:11:07;;;;;;;1.58;1.13;;;;;;;21.73;75.62;100212.50;6004066;23;20024;-77
2021/06/23 01:13:48;;;;;;;1.35;0.85;;;;;;;21.77;74.22;100211.03;5957020;23;20469;-77
2021/06/23 01:16:15;;;;;;;1.65;1.10;;;;;;;21.81;75.32;100209.53;5980365;23;20106;-77
2021/06/23 01:18:41;;;;;;;1.90;1.33;;;;;;;21.81;75.53;100215.03;6004267;23;20020;-76
2021/06/23 01:21:09;;;;;;;2.97;1.10;;;;;;;21.76;75.81;100209.34;5981031;23;20452;-79
2021/06/23 01:23:36;;;;;;;2.17;1.08;;;;;;;21.72;75.05;100210.81;6004349;23;20075;-77
2021/06/23 01:26:03;;;;;;;1.52;1.17;;;;;;;21.74;74.98;100211.44;6005890;23;20098;-77
2021/06/23 01:28:36;;;;;;;1.38;1.05;;;;;;;21.80;75.61;100218.03;6004390;23;20023;-77
2021/06/23 01:31:10;;;;;;;2.55;1.30;;;;;;;21.77;75.64;100216.53;6003119;23;20100;-78
2021/06/23 01:33:37;;;;;;;1.83;1.00;;;;;;;21.78;75.93;100220.97;6004938;23;20042;-78
2021/06/23 01:36:04;;;;;;;1.40;1.10;;;;;;;21.71;75.79;100224.75;6005762;23;20407;-76
2021/06/23 01:38:30;;;;;;;2.05;1.08;;;;;;;21.67;76.12;100214.16;6005383;23;20410;-78
2021/06/23 01:40:58;;;;;;;0.85;0.80;;;;;;;21.68;76.07;100223.28;6005807;23;20027;-77
2021/06/23 01:43:24;;;;;;;4.18;0.90;;;;;;;21.73;76.01;100229.00;6004672;23;20484;-77
2021/06/23 01:45:51;;;;;;;0.95;0.90;;;;;;;21.75;75.60;100226.03;6005085;23;20020;-78
2021/06/23 01:48:19;;;;;;;3.25;1.23;;;;;;;21.73;75.96;100229.00;6005437;23;20169;-82
2021/06/23 01:50:56;;;;;;;2.55;1.23;;;;;;;21.74;75.76;100230.69;6005490;23;20058;-77
2021/06/23 01:53:31;;;;;;;1.13;0.93;;;;;;;21.77;75.74;100227.53;6004176;23;20024;-77
2021/06/23 01:55:57;;;;;;;2.05;0.90;;;;;;;21.81;75.86;100234.31;6004640;23;20414;-77
2021/06/23 01:58:23;;;;;;;2.28;1.17;;;;;;;21.79;75.71;100233.69;6005587;23;20411;-77
2021/06/23 02:01:03;;;;;;;1.98;1.10;;;;;;;21.77;75.45;100230.28;6007698;23;20473;-78
2021/06/23 02:03:51;;;;;;;2.28;1.00;;;;;;;21.78;75.71;100234.72;6007331;23;20110;-79
2021/06/23 02:06:49;;;;;;;4.03;1.73;;;;;;;21.85;75.43;100227.31;5982460;23;20024;-77
2021/06/23 02:09:32;;;;;;;2.85;1.25;;;;;;;21.94;75.27;100235.38;6007762;23;20023;-77
2021/06/23 02:12:40;;;;;;;2.15;1.00;;;;;;;22.07;74.30;100235.38;5982627;23;20216;-79
2021/06/23 02:15:08;;;;;;;2.65;1.08;;;;;;;22.12;74.36;100227.31;5981751;23;20462;-77
2021/06/23 02:17:45;;;;;;;2.28;1.00;;;;;;;22.19;74.14;100225.44;5984076;23;20472;-77
2021/06/23 02:20:27;;;;;;;1.27;0.90;;;;;;;22.25;74.94;100221.84;5982177;23;20031;-78
2021/06/23 02:22:55;;;;;;;2.15;1.23;;;;;;;22.31;74.13;100229.25;5981569;23;20102;-77
2021/06/23 02:25:29;;;;;;;2.15;0.98;;;;;;;22.36;73.69;100229.44;5982508;23;20076;-78
2021/06/23 02:28:12;;;;;;;1.80;1.08;;;;;;;22.46;73.59;100228.19;5981791;23;20067;-77
2021/06/23 02:30:39;;;;;;;2.03;0.90;;;;;;;22.55;73.62;100221.38;6006980;23;20042;-75
2021/06/23 02:33:07;;;;;;;1.40;1.20;;;;;;;22.62;73.87;100231.31;5981415;23;20031;-77
2021/06/23 02:35:39;;;;;;;1.98;1.20;;;;;;;22.68;73.21;100214.97;5982906;23;20047;-78
2021/06/23 02:38:15;;;;;;;2.72;1.40;;;;;;;22.81;73.03;100221.28;5982964;23;20042;-75
2021/06/23 02:40:42;;;;;;;2.58;1.10;;;;;;;22.92;72.70;100227.22;6004452;23;20478;-77
2021/06/23 02:43:09;;;;;;;2.85;1.10;;;;;;;23.01;73.03;100239.72;6004398;23;20107;-77
2021/06/23 02:45:35;;;;;;;2.50;0.90;;;;;;;23.03;72.26;100229.28;6006475;23;20028;-79
2021/06/23 02:48:01;;;;;;;2.13;1.10;;;;;;;23.13;71.41;100234.34;6004184;23;20019;-77
2021/06/23 02:51:06;;;;;;;2.42;1.08;;;;;;;23.23;70.71;100235.59;5996161;23;20308;-77
2021/06/23 02:53:34;;;;;;;1.08;0.90;;;;;;;23.35;69.00;100233.81;6004592;23;20064;-78
2021/06/23 02:56:01;;;;;;;1.63;1.02;;;;;;;23.45;69.63;100226.97;5980617;23;20135;-78
2021/06/23 02:58:41;;;;;;;2.22;1.10;;;;;;;23.53;69.05;100235.84;5980460;23;20043;-77
2021/06/23 03:01:07;;;;;;;2.78;1.25;;;;;;;23.67;69.02;100228.34;6003479;23;20111;-79
2021/06/23 03:03:41;;;;;;;1.63;0.85;;;;;;;23.79;68.53;100223.78;5980902;23;20028;-78
2021/06/23 03:06:08;;;;;;;2.25;0.90;;;;;;;23.91;68.37;100231.34;5980832;23;20050;-79
2021/06/23 03:08:35;;;;;;;1.63;1.00;;;;;;;24.02;67.50;100233.38;5981070;23;20448;-79
2021/06/23 03:11:02;;;;;;;1.42;0.90;;;;;;;24.14;66.97;100231.59;6006083;23;20024;-78
2021/06/23 03:14:03;;;;;;;2.30;0.95;;;;;;;24.30;65.77;100244.00;5981343;23;20050;-77
2021/06/23 03:16:50;;;;;;;1.60;0.90;;;;;;;24.47;64.59;100228.56;6006135;23;20031;-80
2021/06/23 03:19:16;;;;;;;2.95;0.90;;;;;;;24.66;62.74;100234.09;6006771;23;20023;-78
2021/06/23 03:21:44;;;;;;;0.82;0.73;;;;;;;24.85;62.62;100226.66;6004549;23;20027;-82
2021/06/23 03:24:10;;;;;;;2.67;0.80;;;;;;;25.10;61.30;100230.19;5981784;23;20024;-77
2021/06/23 03:26:38;;;;;;;1.50;0.80;;;;;;;25.37;60.54;100235.38;5981109;23;20039;-79
2021/06/23 03:29:26;;;;;;;1.52;0.80;;;;;;;25.55;59.32;100238.09;6004501;23;20051;-78
2021/06/23 03:31:51;;;;;;;1.73;1.00;;;;;;;25.68;60.01;100232.38;5982745;23;20027;-81
2021/06/23 03:34:21;;;;;;;1.90;0.90;;;;;;;25.84;59.57;100241.94;5982797;23;20070;-78
2021/06/23 03:37:01;;;;;;;1.95;0.90;;;;;;;26.04;58.79;100238.88;6006585;23;20458;-79
2021/06/23 03:39:30;;;;;;;2.20;0.90;;;;;;;26.19;57.99;100238.41;5980426;23;20035;-78
2021/06/23 03:42:02;;;;;;;2.43;1.00;;;;;;;26.40;58.04;100246.16;6005683;23;20023;-78
2021/06/23 03:44:28;;;;;;;1.73;1.10;;;;;;;26.59;57.29;100238.56;6005112;23;20015;-77
2021/06/23 03:46:57;;;;;;;1.38;0.90;;;;;;;26.83;56.29;100235.75;5981256;23;20024;-81
2021/06/23 03:49:24;;;;;;;1.63;0.90;;;;;;;27.03;55.32;100233.44;6004339;23;20019;-77
2021/06/23 03:51:52;;;;;;;1.23;0.70;;;;;;;27.24;53.59;100231.09;6007919;23;20031;-77
2021/06/23 03:54:20;;;;;;;1.27;0.60;;;;;;;27.43;53.70;100240.94;6005052;23;20015;-80
2021/06/23 03:56:50;;;;;;;1.35;0.90;;;;;;;27.56;53.82;100237.84;6004990;23;20030;-81
2021/06/23 03:59:16;;;;;;;2.08;1.00;;;;;;;27.88;51.65;100240.13;6010801;23;20023;-79
2021/06/23 04:01:42;;;;;;;1.20;0.68;;;;;;;28.03;51.56;100232.06;6009777;23;20027;-77
2021/06/23 04:04:13;;;;;;;1.52;0.75;;;;;;;28.12;51.28;100226.94;6032608;23;20023;-81
2021/06/23 04:06:47;;;;;;;2.50;0.98;;;;;;;28.38;51.79;100232.94;6011074;23;20075;-80
2021/06/23 04:09:17;;;;;;;2.65;1.23;;;;;;;28.58;50.24;100236.84;6009749;23;20023;-76
2021/06/23 04:11:48;;;;;;;3.38;1.00;;;;;;;28.83;49.67;100238.31;6032209;23;20073;-77
2021/06/23 04:14:14;;;;;;;2.25;0.90;;;;;;;29.02;49.51;100241.66;6035119;23;20056;-78
2021/06/23 04:16:41;;;;;;;1.88;0.88;;;;;;;29.14;48.81;100235.94;6032219;23;20027;-79
2021/06/23 04:19:07;;;;;;;1.50;0.90;;;;;;;29.40;47.83;100234.31;6008585;23;20118;-79
2021/06/23 04:21:39;;;;;;;1.98;0.90;;;;;;;29.67;47.71;100245.50;6009795;23;20572;-80
2021/06/23 04:24:09;;;;;;;3.50;1.02;;;;;;;29.82;46.95;100242.03;6008941;23;20027;-80
2021/06/23 04:26:41;;;;;;;1.05;0.85;;;;;;;30.09;46.77;100242.00;6034917;23;20065;-77
2021/06/23 04:29:09;;;;;;;1.15;0.80;;;;;;;30.17;45.31;100244.34;6032386;23;20045;-77
2021/06/23 04:31:37;;;;;;;1.63;0.75;;;;;;;30.29;45.37;100231.03;6008142;23;20454;-79
2021/06/23 04:34:03;;;;;;;0.85;0.70;;;;;;;30.58;44.78;100230.69;6034046;23;20031;-79
2021/06/23 04:36:29;;;;;;;1.40;0.80;;;;;;;30.78;43.84;100216.88;6008777;23;20082;-79
2021/06/23 04:38:55;;;;;;;1.08;0.90;;;;;;;30.94;44.44;100227.00;6034544;23;20509;-77
2021/06/23 04:41:23;;;;;;;1.38;0.80;;;;;;;31.16;43.44;100228.78;6033843;23;20023;-78
2021/06/23 04:43:50;;;;;;;1.20;0.70;;;;;;;31.24;42.72;100225.47;6034445;23;20031;-79
2021/06/23 04:46:17;;;;;;;1.13;0.68;;;;;;;31.60;41.56;100228.38;6032222;23;20393;-78
2021/06/23 04:48:43;;;;;;;1.55;0.70;;;;;;;31.80;41.49;100238.75;6009381;23;20023;-79
2021/06/23 04:51:17;;;;;;;0.60;0.60;;;;;;;31.96;39.91;100231.25;6009459;23;20075;-79
2021/06/23 04:53:45;;;;;;;0.93;0.60;;;;;;;32.21;39.54;100242.44;6032864;23;20023;-77
2021/06/23 04:56:11;;;;;;;0.88;0.60;;;;;;;32.58;38.70;100244.97;6032816;23;20048;-78
2021/06/23 04:58:43;;;;;;;1.10;0.65;;;;;;;32.63;38.24;100236.53;5985749;23;20098;-80
2021/06/23 05:01:12;;;;;;;0.88;0.70;;;;;;;32.79;38.47;100234.53;6009492;23;20019;-79
2021/06/23 05:03:46;;;;;;;0.60;0.60;;;;;;;33.01;37.85;100258.59;6008113;23;20031;-79
2021/06/23 05:06:13;;;;;;;1.50;0.70;;;;;;;33.25;37.30;100242.81;6033584;23;20098;-77
2021/06/23 05:08:40;;;;;;;1.42;0.80;;;;;;;33.57;36.87;100247.16;6031932;23;20110;-78
2021/06/23 05:11:21;;;;;;;0.95;0.70;;;;;;;33.66;36.78;100247.38;6033780;23;20094;-79
2021/06/23 05:13:47;;;;;;;1.42;0.82;;;;;;;33.93;36.62;100246.91;6008105;23;20027;-80
2021/06/23 05:16:26;;;;;;;1.48;0.90;;;;;;;34.29;35.76;100253.94;6009145;23;20057;-78
2021/06/23 05:18:53;;;;;;;1.58;0.80;;;;;;;34.44;35.01;100252.13;6032320;23;20033;-77
2021/06/23 05:21:19;;;;;;;1.92;0.85;;;;;;;34.59;34.52;100254.81;6032648;23;20050;-79
2021/06/23 05:23:45;;;;;;;0.90;0.70;;;;;;;34.66;34.12;100255.28;6008788;23;20370;-79
2021/06/23 05:26:12;;;;;;;1.17;0.80;;;;;;;35.04;35.00;100261.09;6034557;23;20518;-79
2021/06/23 05:28:38;;;;;;;1.88;1.00;;;;;;;35.20;34.64;100258.94;6010731;23;20035;-79
2021/06/23 05:31:05;;;;;;;1.67;0.90;;;;;;;35.49;33.25;100250.38;6034942;23;20023;-78
2021/06/23 05:33:31;;;;;;;1.35;1.00;;;;;;;35.77;32.80;100253.41;6035313;23;20031;-79
2021/06/23 05:35:57;;;;;;;2.88;1.23;;;;;;;35.96;32.55;100242.97;6035805;23;20106;-81
2021/06/23 05:38:24;;;;;;;1.13;0.80;;;;;;;36.37;31.46;100248.75;6008976;23;20107;-80
2021/06/23 05:40:50;;;;;;;2.47;0.85;;;;;;;36.51;32.43;100245.19;6032463;23;20023;-79
2021/06/23 05:43:16;;;;;;;2.78;1.00;;;;;;;36.38;31.99;100238.31;6033639;23;20102;-82
2021/06/23 05:45:42;;;;;;;1.90;0.95;;;;;;;36.81;31.48;100235.31;6035076;23;20372;-81
2021/06/23 05:48:08;;;;;;;1.65;0.70;;;;;;;36.79;32.08;100243.25;6007263;23;20031;-80
2021/06/23 05:50:35;;;;;;;0.70;0.70;;;;;;;37.06;30.24;100234.81;6034597;23;20019;-81
2021/06/23 05:53:01;;;;;;;2.20;1.02;;;;;;;37.30;29.60;100242.19;6032513;23;20034;-80
2021/06/23 05:55:28;;;;;;;1.25;0.90;;;;;;;37.06;30.21;100228.34;6033408;23;20015;-80
2021/06/23 05:57:55;;;;;;;1.65;0.73;;;;;;;37.55;29.92;100227.53;5984237;23;20081;-80
2021/06/23 06:00:22;;;;;;;1.17;0.82;;;;;;;37.29;30.94;100234.88;6010375;23;20126;-79
2021/06/23 06:02:49;;;;;;;1.20;0.80;;;;;;;37.50;29.90;100241.78;5963604;23;20028;-80
2021/06/23 06:05:15;;;;;;;1.63;0.80;;;;;;;37.88;29.16;100230.16;6001545;23;20075;-79
2021/06/23 06:07:42;;;;;;;1.00;0.80;;;;;;;38.17;29.88;100231.75;5955642;23;20518;-77
2021/06/23 06:10:10;;;;;;;0.85;0.60;;;;;;;38.33;28.11;100241.50;5975292;23;20498;-77
2021/06/23 06:12:37;;;;;;;1.95;1.02;;;;;;;38.22;28.11;100235.28;5955479;23;20023;-79
2021/06/23 06:15:03;;;;;;;1.15;0.82;;;;;;;38.47;28.43;100245.09;6001759;23;20020;-77
2021/06/23 06:17:29;;;;;;;0.77;0.77;;;;;;;38.93;27.02;100243.00;6003868;23;20028;-79
2021/06/23 06:19:56;;;;;;;1.02;0.90;;;;;;;38.38;28.19;100237.72;6001759;23;20023;-81
2021/06/23 06:22:24;;;;;;;0.75;0.75;;;;;;;39.16;26.98;100241.75;5978687;23;20026;-79
2021/06/23 06:24:50;;;;;;;0.75;0.75;;;;;;;39.43;26.74;100240.69;6002625;23;20019;-79
2021/06/23 06:27:16;;;;;;;2.03;0.93;;;;;;;39.90;26.18;100232.44;6006341;23;20411;-81
2021/06/23 06:29:43;;;;;;;1.63;0.95;;;;;;;39.83;26.89;100232.09;5983027;23;20478;-81
2021/06/23 06:32:10;;;;;;;1.02;0.90;;;;;;;39.97;25.83;100227.09;5980990;23;20156;-81
2021/06/23 06:34:36;;;;;;;1.27;0.82;;;;;;;40.13;25.37;100240.78;5982017;23;20443;-81
2021/06/23 06:37:02;;;;;;;0.98;0.88;;;;;;;40.15;25.86;100238.41;5981068;23;20058;-80
2021/06/23 06:39:28;;;;;;;1.27;1.10;;;;;;;40.26;25.77;100242.56;6006793;23;20023;-80
2021/06/23 06:41:53;;;;;;;1.77;0.90;;;;;;;40.27;25.11;100235.75;6005219;23;20047;-83
2021/06/23 06:44:21;;;;;;;1.10;1.00;;;;;;;40.40;24.99;100234.69;5984426;23;20031;-80
2021/06/23 06:46:47;;;;;;;1.90;0.90;;;;;;;40.91;25.45;100230.03;6011101;23;20034;-81
2021/06/23 06:49:13;;;;;;;1.10;1.00;;;;;;;41.11;24.76;100239.00;5990384;23;20028;-83
2021/06/23 06:51:41;;;;;;;1.70;1.00;;;;;;;41.28;23.99;100236.03;5989240;23;20020;-82
2021/06/23 06:54:07;;;;;;;1.17;0.90;;;;;;;41.38;23.47;100241.31;5982764;23;20058;-82
2021/06/23 06:56:33;;;;;;;1.17;0.80;;;;;;;41.21;23.53;100238.59;6008322;23;20020;-81
2021/06/23 06:58:59;;;;;;;1.20;0.90;;;;;;;41.50;23.39;100243.44;5985536;23;20028;-83
2021/06/23 07:01:25;;;;;;;1.10;1.00;;;;;;;41.46;23.18;100241.63;5985826;23;20339;-83
2021/06/23 07:03:55;;;;;;;0.93;0.80;;;;;;;41.66;22.93;100246.50;6011893;23;20387;-84
2021/06/23 07:06:24;;;;;;;0.93;0.80;;;;;;;41.51;22.96;100245.13;5961219;23;20026;-82
2021/06/23 07:08:50;;;;;;;0.98;0.90;;;;;;;41.72;22.30;100245.09;5982508;23;20079;-82
2021/06/23 07:11:17;;;;;;;0.90;0.90;;;;;;;41.89;22.40;100242.16;5982613;23;20034;-81
2021/06/23 07:13:43;;;;;;;1.02;0.90;;;;;;;41.98;22.11;100241.25;5985326;23;20023;-82
2021/06/23 07:16:09;;;;;;;2.15;0.93;;;;;;;42.46;21.61;100239.81;5984697;23;20043;-81
2021/06/23 07:18:36;;;;;;;0.98;0.98;;;;;;;42.97;20.93;100249.75;5985281;23;20027;-83
2021/06/23 07:21:02;;;;;;;0.93;0.82;;;;;;;42.91;20.77;100244.63;5983348;23;20043;-81
2021/06/23 07:23:28;;;;;;;1.85;1.08;;;;;;;43.06;21.65;100243.94;6006906;23;20023;-83
2021/06/23 07:26:16;;;;;;;1.13;1.00;;;;;;;43.00;21.62;100245.34;5982415;23;20028;-82
2021/06/23 07:29:06;;;;;;;;;;;;;;;;;;;;;
2021/06/23 07:31:59;;;;;;;1.98;1.25;;;;;;;43.76;21.44;100250.28;5983082;23;20398;-82
2021/06/23 07:37:05;;;;;;;1.05;1.00;;;;;;;43.63;21.08;100260.06;6006196;23;20031;-80
2021/06/23 07:40:15;;;;;;;1.27;0.95;;;;;;;43.44;21.04;100251.28;6006935;23;20092;-83
2021/06/23 07:42:46;;;;;;;1.55;1.23;;;;;;;43.28;20.87;100254.84;5960663;23;20455;-83
2021/06/23 07:45:13;;;;;;;2.15;1.23;;;;;;;43.30;21.25;100258.19;6008676;23;20470;-83
2021/06/23 07:48:16;;;;;;;1.10;1.00;;;;;;;42.03;22.66;100249.56;5964334;23;20059;-81
2021/06/23 07:51:13;;;;;;;1.10;1.00;;;;;;;42.79;21.30;100260.53;5987107;23;20023;-84
2021/06/23 07:56:54;;;;;;;1.30;1.20;;;;;;;42.35;21.96;100257.31;5989982;23;20498;-83
2021/06/23 08:11:04;;;;;;;2.00;1.27;;;;;;;44.57;19.57;100258.75;5929575;24;20025;-83
2021/06/23 08:13:30;;;;;;;1.55;1.25;;;;;;;44.49;19.43;100268.31;5881991;24;20114;-81
2021/06/23 08:15:57;;;;;;;1.40;1.30;;;;;;;44.55;19.93;100257.47;5938475;23;20027;-82
2021/06/23 08:18:23;;;;;;;1.30;1.20;;;;;;;44.46;19.94;100264.16;6018811;23;20079;-83
2021/06/23 08:20:50;;;;;;;1.40;1.10;;;;;;;42.94;20.95;100261.84;6017872;23;20035;-80
2021/06/23 08:23:18;;;;;;;1.92;1.40;;;;;;;43.75;20.67;100274.28;6041716;23;20366;-82
2021/06/23 08:25:45;;;;;;;1.17;1.08;;;;;;;44.28;20.01;100272.25;6020433;23;20106;-84
2021/06/23 08:28:11;;;;;;;1.42;1.33;;;;;;;43.72;20.44;100272.13;6018461;23;20061;-82
2021/06/23 08:30:38;;;;;;;1.55;1.42;;;;;;;44.23;20.51;100274.50;6042224;23;20334;-81
2021/06/23 08:33:04;;;;;;;1.40;1.30;;;;;;;43.11;20.89;100280.72;6018481;23;20458;-80
2021/06/23 08:35:31;;;;;;;1.65;1.35;;;;;;;42.96;21.29;100270.00;6015123;23;20141;-81
2021/06/23 08:37:57;;;;;;;1.40;1.30;;;;;;;41.14;22.63;100269.53;6039936;23;20026;-79
2021/06/23 08:40:24;;;;;;;1.50;1.27;;;;;;;42.11;22.53;100262.88;5989535;23;20046;-80
2021/06/23 08:42:51;;;;;;;2.28;1.25;;;;;;;43.60;20.30;100272.16;5995610;23;20023;-82
2021/06/23 08:45:18;;;;;;;1.58;1.40;;;;;;;43.42;20.91;100265.06;5995247;23;20141;-83
2021/06/23 08:47:48;;;;;;;1.50;1.40;;;;;;;44.20;20.27;100267.47;6022048;23;20042;-82
2021/06/23 08:50:17;;;;;;;1.63;1.30;;;;;;;44.69;20.37;100267.28;6022364;23;20023;-81
2021/06/23 08:52:44;;;;;;;1.40;1.30;;;;;;;42.73;21.50;100261.09;6016827;23;20087;-82
2021/06/23 08:55:11;;;;;;;1.30;1.20;;;;;;;42.48;21.87;100260.19;6040387;23;20023;-83
2021/06/23 08:57:38;;;;;;;1.52;1.25;;;;;;;43.22;21.10;100259.13;6039870;23;20019;-82
2021/06/23 09:00:07;;;;;;;1.50;1.30;;;;;;;43.88;20.44;100260.00;6036522;23;20059;-81
2021/06/23 09:02:34;;;;;;;2.22;1.50;;;;;;;44.66;19.68;100267.97;6014452;23;20023;-82
2021/06/23 09:05:04;;;;;;;1.25;1.15;;;;;;;43.83;19.79;100263.09;6016776;23;20353;-83
2021/06/23 09:07:45;;;;;;;1.70;1.30;;;;;;;44.56;19.20;100262.81;6035927;23;20163;-80
2021/06/23 09:10:21;;;;;;;2.45;1.75;;;;;;;44.89;19.54;100264.53;6035287;23;20713;-81
2021/06/23 09:13:14;;;;;;;7.05;5.13;;;;;;;45.80;18.90;100257.75;6039072;23;20115;-79
2021/06/23 09:16:02;;;;;;;3.03;2.40;;;;;;;45.63;19.11;100256.16;5967360;23;20264;-84
2021/06/23 09:18:34;;;;;;;3.83;3.30;;;;;;;45.36;19.10;100260.81;6012134;23;20043;-83
2021/06/23 09:21:17;;;;;;;1.83;1.73;;;;;;;43.38;21.42;100247.03;5989597;23;20053;-80
2021/06/23 09:23:51;;;;;;;1.60;1.50;;;;;;;44.23;20.65;100254.53;5989661;23;20023;-82
2021/06/23 09:26:29;;;;;;;2.83;1.80;;;;;;;44.61;20.23;100242.56;6022604;23;20023;-83
2021/06/23 09:29:10;;;;;;;3.38;2.80;;;;;;;43.96;20.40;100244.81;6020879;23;20106;-84
2021/06/23 09:32:00;;;;;;;1.30;1.20;;;;;;;44.63;20.12;100240.19;6019441;23;20022;-83
2021/06/23 09:34:30;;;;;;;2.28;1.50;;;;;;;44.20;19.93;100243.84;6043930;23;20034;-83
2021/06/23 09:36:59;;;;;;;2.00;1.55;;;;;;;45.02;20.14;100245.28;6008618;23;20362;-83
2021/06/23 09:39:30;;;;;;;2.50;1.67;;;;;;;45.28;19.90;100242.69;6010855;23;20027;-83
2021/06/23 09:41:58;;;;;;;3.15;1.77;;;;;;;45.23;20.30;100242.97;6011555;23;20081;-81
2021/06/23 09:44:26;;;;;;;1.88;1.30;;;;;;;45.26;19.16;100238.53;5969363;23;20610;-82
2021/06/23 09:46:54;;;;;;;2.03;1.60;;;;;;;44.65;19.40;100248.34;5998925;23;20039;-83
2021/06/23 09:49:27;;;;;;;2.85;1.38;;;;;;;44.60;19.50;100240.91;5996839;23;20087;-82
2021/06/23 09:52:11;;;;;;;2.30;1.40;;;;;;;45.08;19.09;100253.19;6018058;23;20039;-83
2021/06/23 09:54:50;;;;;;;1.88;1.35;;;;;;;44.20;20.24;100235.28;6018656;23;20047;-81
2021/06/23 09:57:17;;;;;;;1.45;1.33;;;;;;;44.78;19.89;100246.28;5990984;23;20022;-82
2021/06/23 09:59:56;;;;;;;2.08;1.60;;;;;;;45.08;19.67;100233.22;5958785;24;20020;-81
2021/06/23 10:06:29;;;;;;;2.17;1.75;;;;;;;45.64;18.38;100232.94;5961863;24;20032;-83
2021/06/23 10:09:35;;;;;;;1.95;1.40;;;;;;;44.96;19.32;100224.75;5937896;24;20034;-85
2021/06/23 10:12:01;;;;;;;1.73;1.63;;;;;;;42.60;21.11;100223.22;5899045;24;20040;-81
2021/06/23 10:14:30;;;;;;;2.10;1.35;;;;;;;41.31;22.10;100218.31;5870632;24;20094;-80
2021/06/23 10:17:00;;;;;;;1.30;1.20;;;;;;;41.06;23.06;100216.47;5890403;24;20020;-82
2021/06/23 10:19:28;;;;;;;1.83;1.42;;;;;;;40.76;23.61;100201.44;5986230;24;20340;-81
2021/06/23 10:21:55;;;;;;;1.30;1.20;;;;;;;41.23;22.93;100210.72;5957823;24;20592;-81
2021/06/23 10:24:24;;;;;;;2.35;1.23;;;;;;;42.97;21.47;100209.91;5988499;24;20089;-82
2021/06/23 10:26:52;;;;;;;2.05;1.35;;;;;;;43.25;21.87;100220.56;5963974;24;20032;-82
2021/06/23 10:29:21;;;;;;;1.50;1.40;;;;;;;42.64;22.08;100215.69;5988969;24;20076;-85
2021/06/23 10:31:49;;;;;;;1.63;1.30;;;;;;;41.33;23.22;100213.16;5967181;24;20028;-84
2021/06/23 10:34:17;;;;;;;1.33;1.20;;;;;;;41.83;22.91;100208.59;5962726;24;20024;-83
2021/06/23 10:36:44;;;;;;;1.65;1.52;;;;;;;42.69;22.55;100214.63;5939848;24;20020;-82
2021/06/23 10:39:11;;;;;;;1.25;1.10;;;;;;;41.32;23.06;100214.34;5965962;24;20028;-84
2021/06/23 10:41:40;;;;;;;2.25;1.17;;;;;;;42.01;22.14;100200.78;5966030;24;20028;-81
2021/06/23 10:44:40;;;;;;;1.90;1.23;;;;;;;43.34;21.28;100212.75;5990250;24;20024;-81
2021/06/23 10:47:26;;;;;;;1.35;1.25;;;;;;;41.89;22.03;100205.22;5946585;24;20039;-81
2021/06/23 10:49:56;;;;;;;1.58;1.10;;;;;;;43.07;21.65;100197.19;5969979;24;20035;-84
2021/06/23 10:52:30;;;;;;;2.25;1.48;;;;;;;43.98;20.45;100197.63;5968106;24;20031;-83
2021/06/23 10:55:05;;;;;;;1.20;1.10;;;;;;;43.39;20.46;100208.81;5992197;24;20039;-82
2021/06/23 10:57:39;;;;;;;1.60;1.27;;;;;;;42.48;20.68;100194.78;5988180;24;20053;-82
2021/06/23 11:00:18;;;;;;;1.58;1.30;;;;;;;41.80;22.15;100198.78;5969225;24;20220;-81
2021/06/23 11:02:49;;;;;;;1.33;1.23;;;;;;;41.75;22.44;100189.63;5965144;24;20035;-84
2021/06/23 11:05:17;;;;;;;1.23;1.10;;;;;;;41.56;22.16;100178.78;5969447;24;20096;-82
2021/06/23 11:07:52;;;;;;;1.20;1.10;;;;;;;41.11;22.57;100185.09;5992756;24;20020;-82
2021/06/23 11:10:30;;;;;;;1.67;1.30;;;;;;;41.94;21.92;100189.16;5965048;24;20024;-84
2021/06/23 11:13:02;;;;;;;1.67;1.20;;;;;;;40.42;22.65;100186.19;5966542;24;20016;-82
2021/06/23 11:15:32;;;;;;;1.77;1.35;;;;;;;42.09;21.58;100182.81;5963934;24;20083;-83
2021/06/23 11:18:22;;;;;;;1.35;1.10;;;;;;;41.50;22.02;100180.16;5969288;24;20479;-84
2021/06/23 11:20:52;;;;;;;1.53;1.40;;;;;;;41.86;21.53;100177.53;5985280;24;20054;-82
2021/06/23 11:23:47;;;;;;;1.20;1.10;;;;;;;43.04;21.16;100175.13;5936297;24;20115;-84
2021/06/23 11:26:21;;;;;;;1.00;1.00;;;;;;;41.75;21.79;100179.09;5959198;24;20043;-81
2021/06/23 11:28:49;;;;;;;1.20;1.10;;;;;;;42.31;20.63;100176.75;5960445;24;20052;-82
2021/06/23 11:31:16;;;;;;;1.30;1.20;;;;;;;41.91;19.48;100157.44;5964638;24;20441;-82
2021/06/23 11:33:43;;;;;;;1.30;1.20;;;;;;;42.90;19.11;100169.00;5944465;24;20498;-83
2021/06/23 11:36:16;;;;;;;2.03;1.30;;;;;;;43.48;19.00;100172.50;5965450;24;20048;-83
2021/06/23 11:38:43;;;;;;;1.20;1.10;;;;;;;43.62;18.58;100183.50;5985519;24;20068;-83
2021/06/23 11:41:10;;;;;;;1.17;1.10;;;;;;;43.39;19.43;100166.09;5938802;24;20028;-81
2021/06/23 11:43:38;;;;;;;1.20;1.10;;;;;;;41.64;20.70;100160.81;5988234;24;20064;-83
2021/06/23 11:46:05;;;;;;;1.42;1.10;;;;;;;41.77;20.39;100170.25;5958811;24;20123;-84
2021/06/23 11:48:32;;;;;;;1.30;1.20;;;;;;;42.45;19.92;100155.69;5966193;24;20024;-84
2021/06/23 11:50:59;;;;;;;1.15;1.00;;;;;;;42.68;19.83;100162.63;5962962;24;20603;-82
2021/06/23 11:53:26;;;;;;;1.92;1.15;;;;;;;42.62;19.64;100169.69;5940255;24;20079;-84
2021/06/23 11:55:53;;;;;;;1.77;1.17;;;;;;;42.65;18.88;100163.28;5966717;24;20035;-83
2021/06/23 11:58:20;;;;;;;1.40;1.02;;;;;;;42.76;19.38;100170.19;5944882;24;20075;-81
2021/06/23 12:00:49;;;;;;;1.10;1.00;;;;;;;42.19;19.51;100165.31;5989765;23;20024;-82
2021/06/23 12:03:17;;;;;;;1.63;1.00;;;;;;;42.72;19.62;100174.13;5939857;24;20037;-83
2021/06/23 12:05:47;;;;;;;0.90;0.82;;;;;;;42.11;20.33;100160.56;5962155;24;20031;-83